createdAt,value
2017-07-31T00:06:05.094Z,56.50
2017-07-31T00:08:53.957Z,56.70
2017-07-31T00:11:22.055Z,57.40
2017-07-31T00:13:48.665Z,57.70
2017-07-31T00:19:10.628Z,58.00
2017-07-31T00:24:30.415Z,58.40
2017-07-31T00:32:43.743Z,58.80
2017-07-31T00:35:10.201Z,58.50
2017-07-31T00:37:40.915Z,58.50
2017-07-31T00:40:25.136Z,59.00
2017-07-31T01:24:14.153Z,61.10
2017-07-31T01:38:13.445Z,63.00
2017-07-31T01:40:40.798Z,62.90
2017-07-31T01:50:50.905Z,63.70
2017-07-31T01:53:18.524Z,65.20
2017-07-31T01:55:48.793Z,64.00
2017-07-31T02:01:31.886Z,64.50
2017-07-31T02:12:39.204Z,65.70
2017-07-31T02:18:18.412Z,64.60
2017-07-31T02:20:44.906Z,64.90
2017-07-31T02:37:35.659Z,65.30
2017-07-31T02:43:24.366Z,65.20
2017-07-31T02:45:55.912Z,65.50
2017-07-31T02:48:24.572Z,65.60
2017-07-31T02:50:52.120Z,65.80
2017-07-31T02:56:10.931Z,65.60
2017-07-31T02:58:37.224Z,65.60
2017-07-31T03:03:56.047Z,65.40
2017-07-31T03:06:25.955Z,65.70
2017-07-31T03:11:45.689Z,65.90
2017-07-31T03:17:04.560Z,66.10
2017-07-31T03:22:22.055Z,66.80
2017-07-31T03:24:48.459Z,67.00
2017-07-31T03:30:07.254Z,67.10
2017-07-31T03:32:42.025Z,67.20
2017-07-31T03:35:23.583Z,67.30
2017-07-31T03:38:25.114Z,67.20
2017-07-31T03:40:51.797Z,67.80
2017-07-31T03:43:19.559Z,67.50
2017-07-31T03:45:59.359Z,68.10
2017-07-31T03:51:20.148Z,69.10
2017-07-31T03:53:46.660Z,70.30
2017-07-31T03:56:15.034Z,69.90
2017-07-31T03:58:44.357Z,68.90
2017-07-31T04:01:37.074Z,68.20
2017-07-31T04:10:26.917Z,67.70
2017-07-31T04:21:40.420Z,68.90
2017-07-31T04:24:08.699Z,69.40
2017-07-31T04:26:56.051Z,71.40
2017-07-31T04:29:25.742Z,70.60
2017-07-31T04:43:20.612Z,67.90
2017-07-31T04:54:37.751Z,68.80
2017-07-31T04:59:58.814Z,67.90
2017-07-31T05:05:18.369Z,67.70
2017-07-31T05:08:10.965Z,67.50
2017-07-31T05:19:17.053Z,66.00
2017-07-31T05:27:56.212Z,65.70
2017-07-31T05:33:15.608Z,64.10
2017-07-31T05:38:35.106Z,64.80
2017-07-31T05:41:01.882Z,64.80
2017-07-31T05:43:34.774Z,65.00
2017-07-31T05:46:04.805Z,64.80
2017-07-31T05:48:32.440Z,64.50
2017-07-31T05:50:58.986Z,63.70
2017-07-31T05:56:19.033Z,62.50
2017-07-31T05:58:45.467Z,62.00
2017-07-31T06:01:11.887Z,61.90
2017-07-31T06:12:09.885Z,62.10
2017-07-31T06:17:29.295Z,62.10
2017-07-31T06:19:55.783Z,62.10
2017-07-31T06:22:24.350Z,62.10
2017-07-31T06:24:50.896Z,62.10
2017-07-31T06:27:17.124Z,62.70
2017-07-31T06:29:45.874Z,61.80
2017-07-31T06:32:55.393Z,60.80
2017-07-31T06:38:14.210Z,61.00
2017-07-31T06:43:57.025Z,60.60
2017-07-31T06:46:24.700Z,61.10
2017-07-31T06:48:51.187Z,61.10
2017-07-31T06:51:25.544Z,61.40
2017-07-31T06:53:52.509Z,60.60
2017-07-31T06:56:19.859Z,60.30
2017-07-31T07:07:55.353Z,58.60
2017-07-31T07:10:31.796Z,57.90
2017-07-31T07:13:00.529Z,57.70
2017-07-31T07:18:20.238Z,57.60
2017-07-31T07:20:54.037Z,57.40
2017-07-31T07:23:25.220Z,56.90
2017-07-31T07:29:01.959Z,56.20
2017-07-31T07:31:28.408Z,55.60
2017-07-31T07:34:17.583Z,56.00
2017-07-31T07:36:44.780Z,55.00
2017-07-31T07:39:11.628Z,55.40
2017-07-31T07:41:38.407Z,54.90
2017-07-31T07:46:57.323Z,54.40
2017-07-31T07:52:17.078Z,54.20
2017-07-31T07:55:03.201Z,54.10
2017-07-31T07:57:54.556Z,54.30
2017-07-31T08:00:21.226Z,52.70
2017-07-31T08:11:35.467Z,51.50
2017-07-31T08:14:02.324Z,51.60
2017-07-31T08:16:41.833Z,51.50
2017-07-31T08:19:17.422Z,49.90
2017-07-31T08:21:54.639Z,49.70
2017-07-31T08:24:22.736Z,50.00
2017-07-31T08:26:50.179Z,49.80
2017-07-31T08:29:16.505Z,48.90
2017-07-31T08:31:43.300Z,48.90
2017-07-31T08:34:10.424Z,47.60
2017-07-31T08:36:36.731Z,48.30
2017-07-31T08:39:23.857Z,47.90
2017-07-31T08:41:50.900Z,49.00
2017-07-31T08:50:24.807Z,46.10
2017-07-31T08:55:44.524Z,46.30
2017-07-31T08:58:11.284Z,44.80
2017-07-31T09:00:37.638Z,44.40
2017-07-31T09:03:11.526Z,44.60
2017-07-31T09:08:53.843Z,44.10
2017-07-31T09:14:13.381Z,45.00
2017-07-31T09:16:58.763Z,44.60
2017-07-31T09:22:01.461Z,43.20
2017-07-31T09:27:25.015Z,43.10
2017-07-31T09:32:44.755Z,43.30
2017-07-31T09:35:11.098Z,42.40
2017-07-31T09:37:43.678Z,41.20
2017-07-31T09:43:02.851Z,40.70
2017-07-31T09:48:22.677Z,42.20
2017-07-31T09:53:46.181Z,42.50
2017-07-31T09:56:25.833Z,42.40
2017-07-31T09:58:52.689Z,42.50
2017-07-31T10:01:19.272Z,42.10
2017-07-31T10:03:45.566Z,41.50
2017-07-31T10:06:20.774Z,41.20
2017-07-31T10:11:41.138Z,39.80
2017-07-31T10:14:08.770Z,39.40
2017-07-31T10:16:36.622Z,39.90
2017-07-31T10:19:03.699Z,39.60
2017-07-31T10:21:30.104Z,39.60
2017-07-31T10:26:56.029Z,39.20
2017-07-31T10:29:25.251Z,38.20
2017-07-31T10:35:11.615Z,38.50
2017-07-31T10:37:56.222Z,38.00
2017-07-31T10:43:41.259Z,38.40
2017-07-31T10:49:09.409Z,37.40
2017-07-31T10:51:36.231Z,37.40
2017-07-31T10:54:04.408Z,37.40
2017-07-31T10:56:30.760Z,37.20
2017-07-31T10:58:58.405Z,37.40
2017-07-31T11:01:24.728Z,37.40
2017-07-31T11:06:44.784Z,36.00
2017-07-31T11:09:11.077Z,36.80
2017-07-31T11:11:37.682Z,35.70
2017-07-31T11:17:13.565Z,35.90
2017-07-31T11:19:40.862Z,35.40
2017-07-31T11:22:07.327Z,33.90
2017-07-31T11:24:33.652Z,33.70
2017-07-31T11:27:00.158Z,34.10
2017-07-31T11:32:13.081Z,34.30
2017-07-31T11:40:41.346Z,34.60
2017-07-31T11:43:07.778Z,33.70
2017-07-31T11:45:34.499Z,33.80
2017-07-31T11:48:01.681Z,33.20
2017-07-31T11:50:43.022Z,33.80
2017-07-31T11:53:09.454Z,33.10
2017-07-31T11:58:34.133Z,33.90
2017-07-31T12:01:01.105Z,34.40
2017-07-31T12:03:27.431Z,34.10
2017-07-31T12:08:33.671Z,35.90
2017-07-31T12:11:00.807Z,35.20
2017-07-31T12:16:42.099Z,34.80
2017-07-31T12:19:24.782Z,35.10
2017-07-31T12:27:37.649Z,35.60
2017-07-31T12:30:04.363Z,35.80
2017-07-31T12:32:34.992Z,35.90
2017-07-31T12:35:01.272Z,36.00
2017-07-31T12:40:24.414Z,35.40
2017-07-31T12:42:50.838Z,35.60
2017-07-31T12:45:17.779Z,35.40
2017-07-31T12:47:56.176Z,35.00
2017-07-31T12:50:27.794Z,35.80
2017-07-31T12:58:24.972Z,35.40
2017-07-31T13:00:51.593Z,35.60
2017-07-31T13:03:32.318Z,36.00
2017-07-31T13:06:00.792Z,35.70
2017-07-31T13:14:19.450Z,40.40
2017-07-31T13:17:10.393Z,40.80
2017-07-31T13:19:36.960Z,40.30
2017-07-31T13:24:56.425Z,39.10
2017-07-31T13:27:23.112Z,38.80
2017-07-31T13:29:51.989Z,39.30
2017-07-31T13:32:18.664Z,39.30
2017-07-31T13:34:44.929Z,38.90
2017-07-31T13:37:11.197Z,39.00
2017-07-31T13:45:11.277Z,38.90
2017-07-31T13:47:37.590Z,39.00
2017-07-31T13:50:04.486Z,37.40
2017-07-31T13:52:31.640Z,38.00
2017-07-31T13:54:58.174Z,38.30
2017-07-31T13:57:25.829Z,38.20
2017-07-31T13:59:52.177Z,39.20
2017-07-31T14:02:18.462Z,38.50
2017-07-31T14:04:45.079Z,38.40
2017-07-31T14:07:12.166Z,38.80
2017-07-31T14:09:38.698Z,39.50
2017-07-31T14:12:05.441Z,37.90
2017-07-31T14:14:33.251Z,37.80
2017-07-31T14:16:59.611Z,37.90
2017-07-31T14:19:25.853Z,38.00
2017-07-31T14:21:52.152Z,37.80
2017-07-31T14:24:18.474Z,38.00
2017-07-31T14:29:18.002Z,37.90
2017-07-31T14:31:44.314Z,37.90
2017-07-31T14:34:10.576Z,37.80
2017-07-31T14:36:38.494Z,38.40
2017-07-31T14:39:04.729Z,38.10
2017-07-31T14:41:31.147Z,38.00
2017-07-31T14:43:57.447Z,37.90
2017-07-31T14:46:23.951Z,37.90
2017-07-31T14:48:52.212Z,37.80
2017-07-31T14:51:18.559Z,37.60
2017-07-31T14:53:44.834Z,37.60
2017-07-31T14:56:12.517Z,38.00
2017-07-31T14:58:38.956Z,38.60
2017-07-31T15:01:05.377Z,38.60
2017-07-31T15:03:31.600Z,39.40
2017-07-31T15:05:57.891Z,39.30
2017-07-31T15:08:24.311Z,39.40
2017-07-31T15:10:50.815Z,39.80
2017-07-31T15:13:18.224Z,40.60
2017-07-31T15:15:44.518Z,41.10
2017-07-31T15:18:10.771Z,41.60
2017-07-31T15:20:37.025Z,41.70
2017-07-31T15:23:03.265Z,42.00
2017-07-31T15:25:29.991Z,42.40
2017-07-31T15:27:56.208Z,42.70
2017-07-31T15:30:22.551Z,43.20
2017-07-31T15:32:48.760Z,43.60
2017-07-31T15:35:15.310Z,44.10
2017-07-31T15:37:41.828Z,44.20
2017-07-31T15:43:01.868Z,42.30
2017-07-31T15:45:28.310Z,42.60
2017-07-31T15:47:54.583Z,42.80
2017-07-31T15:50:20.943Z,42.20
2017-07-31T15:52:47.178Z,41.90
2017-07-31T15:55:13.415Z,42.00
2017-07-31T15:57:40.587Z,42.80
2017-07-31T16:00:07.883Z,43.00
2017-07-31T16:05:11.774Z,42.70
2017-07-31T16:07:38.886Z,42.70
2017-07-31T16:10:05.201Z,43.10
2017-07-31T16:12:31.484Z,43.60
2017-07-31T16:14:57.742Z,42.70
2017-07-31T16:17:25.012Z,42.90
2017-07-31T16:19:51.598Z,42.90
2017-07-31T16:22:18.220Z,42.80
2017-07-31T16:24:44.451Z,43.40
2017-07-31T16:27:12.115Z,43.40
2017-07-31T16:29:38.443Z,44.30
2017-07-31T16:32:04.818Z,45.20
2017-07-31T16:34:31.119Z,45.50
2017-07-31T16:36:57.849Z,45.80
2017-07-31T16:39:25.011Z,45.00
2017-07-31T16:41:53.349Z,44.00
2017-07-31T16:44:31.633Z,44.50
2017-07-31T16:46:57.810Z,42.40
2017-07-31T16:49:24.380Z,43.20
2017-07-31T16:51:50.636Z,43.40
2017-07-31T16:54:16.907Z,43.60
2017-07-31T16:56:43.408Z,43.50
2017-07-31T16:59:09.765Z,44.00
2017-07-31T17:01:36.090Z,44.30
2017-07-31T17:04:02.365Z,45.10
2017-07-31T17:06:28.692Z,45.00
2017-07-31T17:08:54.953Z,45.70
2017-07-31T17:11:21.131Z,45.80
2017-07-31T17:13:47.335Z,45.40
2017-07-31T17:16:13.667Z,44.80
2017-07-31T17:18:40.428Z,44.00
2017-07-31T17:21:07.058Z,44.10
2017-07-31T17:23:33.520Z,44.70
2017-07-31T17:25:59.790Z,45.30
2017-07-31T17:28:25.954Z,45.40
2017-07-31T17:30:52.239Z,45.80
2017-07-31T17:33:18.613Z,45.20
2017-07-31T17:35:47.085Z,45.30
2017-07-31T17:38:13.308Z,45.30
2017-07-31T17:40:39.494Z,45.80
2017-07-31T17:43:19.490Z,46.00
2017-07-31T17:45:45.802Z,46.10
2017-07-31T17:48:12.024Z,46.20
2017-07-31T17:50:38.414Z,46.50
2017-07-31T17:53:05.083Z,46.50
2017-07-31T17:55:31.362Z,46.40
2017-07-31T17:57:57.658Z,46.50
2017-07-31T18:00:24.236Z,46.50
2017-07-31T18:02:50.520Z,46.50
2017-07-31T18:05:16.901Z,46.60
2017-07-31T18:07:43.409Z,47.30
2017-07-31T18:10:09.684Z,47.50
2017-07-31T18:12:35.914Z,47.40
2017-07-31T18:15:02.151Z,47.50
2017-07-31T18:17:30.777Z,47.90
2017-07-31T18:19:59.024Z,48.10
2017-07-31T18:22:25.659Z,48.20
2017-07-31T18:24:52.315Z,48.30
2017-07-31T18:27:18.812Z,48.40
2017-07-31T18:29:45.415Z,48.50
2017-07-31T18:32:11.821Z,48.70
2017-07-31T18:34:38.416Z,48.70
2017-07-31T18:37:05.087Z,49.40
2017-07-31T18:39:32.979Z,49.40
2017-07-31T18:41:59.851Z,49.70
2017-07-31T18:44:26.299Z,50.00
2017-07-31T18:46:52.614Z,50.20
2017-07-31T18:49:18.890Z,50.10
2017-07-31T18:51:45.312Z,50.00
2017-07-31T18:54:12.800Z,50.20
2017-07-31T18:56:40.204Z,50.20
2017-07-31T18:59:06.433Z,50.50
2017-07-31T19:01:32.653Z,50.70
2017-07-31T19:03:58.887Z,52.50
2017-07-31T19:06:55.628Z,53.40
2017-07-31T19:12:25.269Z,53.20
2017-07-31T19:14:51.627Z,53.60
2017-07-31T19:17:18.083Z,54.60
2017-07-31T19:19:44.401Z,55.20
2017-07-31T19:27:55.899Z,56.50
2017-07-31T19:30:22.378Z,56.40
2017-07-31T19:32:50.089Z,56.70
2017-07-31T19:35:16.502Z,56.90
2017-07-31T19:37:42.781Z,57.00
2017-07-31T19:40:09.006Z,56.70
